createdAt,value
2022-12-03T00:01:35.264Z,76.47
2022-12-03T00:04:03.624Z,79.40
2022-12-03T00:06:34.828Z,78.65
2022-12-03T00:09:03.103Z,83.75
2022-12-03T00:11:31.346Z,80.72
2022-12-03T00:13:59.524Z,79.03
2022-12-03T00:16:27.773Z,76.60
2022-12-03T00:18:55.903Z,76.45
2022-12-03T00:21:24.890Z,74.05
2022-12-03T00:23:54.680Z,76.53
2022-12-03T00:26:22.908Z,74.72
2022-12-03T00:28:50.943Z,80.63
2022-12-03T00:31:21.539Z,74.80
2022-12-03T00:33:49.747Z,75.00
2022-12-03T00:36:17.748Z,68.00
2022-12-03T00:38:46.013Z,66.22
2022-12-03T00:41:15.495Z,70.13
2022-12-03T00:43:43.476Z,70.07
2022-12-03T00:46:11.507Z,70.63
2022-12-03T00:48:39.574Z,64.90
2022-12-03T00:51:07.898Z,70.13
2022-12-03T00:53:36.149Z,68.80
2022-12-03T00:56:04.196Z,71.68
2022-12-03T00:58:33.682Z,72.20
2022-12-03T01:01:01.710Z,69.78
2022-12-03T01:03:30.323Z,70.82
2022-12-03T01:05:58.410Z,73.00
2022-12-03T01:08:26.409Z,68.43
2022-12-03T01:10:54.495Z,66.20
2022-12-03T01:13:22.504Z,71.60
2022-12-03T01:15:51.999Z,67.32
2022-12-03T01:18:20.082Z,68.30
2022-12-03T01:20:48.090Z,68.30
2022-12-03T01:23:16.107Z,72.43
2022-12-03T01:25:44.199Z,65.53
2022-12-03T01:28:12.292Z,65.45
2022-12-03T01:30:54.135Z,66.82
2022-12-03T01:33:23.591Z,70.88
2022-12-03T01:35:51.608Z,61.60
2022-12-03T01:38:19.610Z,65.57
2022-12-03T01:40:49.055Z,73.10
2022-12-03T01:43:17.116Z,74.53
2022-12-03T01:45:45.215Z,70.38
2022-12-03T01:48:16.753Z,66.63
2022-12-03T01:50:46.698Z,66.45
2022-12-03T01:53:19.053Z,67.05
2022-12-03T01:55:49.079Z,68.97
2022-12-03T01:58:18.460Z,73.68
2022-12-03T02:00:46.528Z,70.78
2022-12-03T02:03:19.914Z,66.50
2022-12-03T02:05:49.309Z,70.15
2022-12-03T02:08:32.211Z,67.50
2022-12-03T02:11:03.932Z,78.57
2022-12-03T02:13:32.544Z,73.70
2022-12-03T02:16:00.665Z,71.93
2022-12-03T02:18:28.819Z,72.05
2022-12-03T02:21:05.033Z,63.67
2022-12-03T02:23:38.674Z,59.90
2022-12-03T02:26:08.333Z,64.28
2022-12-03T02:28:36.353Z,64.10
2022-12-03T02:31:05.257Z,60.67
2022-12-03T02:33:33.573Z,60.40
2022-12-03T02:36:03.944Z,62.60
2022-12-03T02:38:34.349Z,61.97
2022-12-03T02:41:06.181Z,64.75
2022-12-03T02:43:34.643Z,62.83
2022-12-03T02:46:04.956Z,68.75
2022-12-03T02:48:35.810Z,62.97
2022-12-03T02:51:06.562Z,65.03
2022-12-03T02:53:42.358Z,71.68
2022-12-03T02:56:13.401Z,74.03
2022-12-03T02:58:44.061Z,64.93
2022-12-03T03:01:12.767Z,70.93
2022-12-03T03:03:41.134Z,68.57
2022-12-03T03:06:10.657Z,69.07
2022-12-03T03:08:40.485Z,76.72
2022-12-03T03:11:09.008Z,66.68
2022-12-03T03:13:37.743Z,68.30
2022-12-03T03:16:09.087Z,73.50
2022-12-03T03:18:37.827Z,64.60
2022-12-03T03:21:06.345Z,63.85
2022-12-03T03:23:34.490Z,67.00
2022-12-03T03:26:05.951Z,65.75
2022-12-03T03:28:36.709Z,66.28
2022-12-03T03:31:08.690Z,66.28
2022-12-03T03:33:38.053Z,61.05
2022-12-03T03:36:07.960Z,60.58
2022-12-03T03:38:36.955Z,57.25
2022-12-03T03:41:07.086Z,60.90
2022-12-03T03:43:36.864Z,56.63
2022-12-03T03:46:05.993Z,58.03
2022-12-03T03:48:36.636Z,60.28
2022-12-03T03:51:09.585Z,62.13
2022-12-03T03:53:39.849Z,57.72
2022-12-03T03:56:08.774Z,61.90
2022-12-03T03:58:37.480Z,59.42
2022-12-03T04:01:05.705Z,59.13
2022-12-03T04:03:35.569Z,57.15
2022-12-03T04:06:04.000Z,58.13
2022-12-03T04:08:32.326Z,62.90
2022-12-03T04:11:17.840Z,58.25
2022-12-03T04:13:46.660Z,60.50
2022-12-03T04:16:14.800Z,60.22
2022-12-03T04:18:44.289Z,57.25
2022-12-03T04:21:31.213Z,57.05
2022-12-03T04:23:59.509Z,55.42
2022-12-03T04:26:45.520Z,59.83
2022-12-03T04:29:13.819Z,62.00
2022-12-03T04:31:59.566Z,55.53
2022-12-03T04:34:46.763Z,60.95
2022-12-03T04:37:14.786Z,69.13
2022-12-03T04:39:42.835Z,61.00
2022-12-03T04:42:10.925Z,57.33
2022-12-03T04:44:39.108Z,57.53
2022-12-03T04:47:10.486Z,61.38
2022-12-03T04:49:41.985Z,61.25
2022-12-03T04:52:10.578Z,60.72
2022-12-03T04:54:39.220Z,64.80
2022-12-03T04:57:08.203Z,68.07
2022-12-03T04:59:37.103Z,63.42
2022-12-03T05:02:06.164Z,68.85
2022-12-03T05:04:34.605Z,66.90
2022-12-03T05:07:04.609Z,71.45
2022-12-03T05:09:32.588Z,73.63
2022-12-03T05:12:00.571Z,73.53
2022-12-03T05:14:28.777Z,83.82
2022-12-03T05:17:12.108Z,76.22
2022-12-03T05:19:57.467Z,77.88
2022-12-03T05:22:26.885Z,77.40
2022-12-03T05:24:55.335Z,77.30
2022-12-03T05:27:24.408Z,79.45
2022-12-03T05:29:53.020Z,78.03
2022-12-03T05:32:21.544Z,76.22
2022-12-03T05:34:49.612Z,82.85
2022-12-03T05:37:17.688Z,86.32
2022-12-03T05:39:47.120Z,93.68
2022-12-03T05:42:32.676Z,79.65
2022-12-03T05:45:00.650Z,78.88
2022-12-03T05:47:28.683Z,82.70
2022-12-03T05:49:56.800Z,82.68
2022-12-03T05:52:24.794Z,88.90
2022-12-03T05:54:54.348Z,85.45
2022-12-03T05:57:22.491Z,80.70
2022-12-03T05:59:50.479Z,71.20
2022-12-03T06:02:18.692Z,74.35
2022-12-03T06:04:46.925Z,77.50
2022-12-03T06:07:14.956Z,79.53
2022-12-03T06:09:42.946Z,78.65
2022-12-03T06:12:12.618Z,71.65
2022-12-03T06:14:41.069Z,79.45
2022-12-03T06:17:09.201Z,79.78
2022-12-03T06:19:37.224Z,75.07
2022-12-03T06:22:05.254Z,74.68
2022-12-03T06:24:33.234Z,71.70
2022-12-03T06:27:01.256Z,76.25
2022-12-03T06:29:30.637Z,70.45
2022-12-03T06:31:58.710Z,73.45
2022-12-03T06:34:26.766Z,73.70
2022-12-03T06:36:54.838Z,71.70
2022-12-03T06:39:23.079Z,72.60
2022-12-03T06:41:51.113Z,68.78
2022-12-03T06:44:19.223Z,74.03
2022-12-03T06:46:49.361Z,68.25
2022-12-03T06:49:17.374Z,71.93
2022-12-03T06:51:45.367Z,68.45
2022-12-03T06:54:13.316Z,73.60
2022-12-03T06:56:45.179Z,70.55
2022-12-03T06:59:13.691Z,67.78
2022-12-03T07:01:41.962Z,70.97
2022-12-03T07:04:11.403Z,73.65
2022-12-03T07:06:39.502Z,69.05
2022-12-03T07:09:07.630Z,72.95
2022-12-03T07:11:40.420Z,68.18
2022-12-03T07:14:13.052Z,70.55
2022-12-03T07:16:43.475Z,68.97
2022-12-03T07:19:13.576Z,70.68
2022-12-03T07:21:41.626Z,71.15
2022-12-03T07:24:10.275Z,67.90
2022-12-03T07:26:38.347Z,62.05
2022-12-03T07:29:06.423Z,61.83
2022-12-03T07:31:34.606Z,59.95
2022-12-03T07:34:02.864Z,64.20
2022-12-03T07:36:32.326Z,73.75
2022-12-03T07:39:00.319Z,79.63
2022-12-03T07:41:28.333Z,69.30
2022-12-03T07:43:56.384Z,61.00
2022-12-03T07:46:24.503Z,60.75
2022-12-03T07:48:52.659Z,66.30
2022-12-03T07:51:20.697Z,64.90
2022-12-03T07:53:50.084Z,63.97
2022-12-03T07:56:18.177Z,60.97
2022-12-03T07:58:46.155Z,61.28
2022-12-03T08:01:14.259Z,61.63
2022-12-03T08:03:42.987Z,64.85
2022-12-03T08:06:11.255Z,55.60
2022-12-03T08:08:39.327Z,59.35
2022-12-03T08:11:13.994Z,67.47
2022-12-03T08:13:42.371Z,54.40
2022-12-03T08:16:17.174Z,59.08
2022-12-03T08:18:46.100Z,67.28
2022-12-03T08:21:15.746Z,60.08
2022-12-03T08:23:44.164Z,53.92
2022-12-03T08:26:22.902Z,52.45
2022-12-03T08:28:51.204Z,52.22
2022-12-03T08:31:27.937Z,55.03
2022-12-03T08:34:08.026Z,55.30
2022-12-03T08:36:36.528Z,51.50
2022-12-03T08:39:24.217Z,51.33
2022-12-03T08:42:14.782Z,50.63
2022-12-03T08:44:42.826Z,49.58
2022-12-03T08:47:15.344Z,52.38
2022-12-03T08:49:47.066Z,50.25
2022-12-03T08:52:18.838Z,50.92
2022-12-03T08:54:52.963Z,53.85
2022-12-03T08:57:28.359Z,54.08
2022-12-03T09:00:01.212Z,57.20
2022-12-03T09:02:33.045Z,57.15
2022-12-03T09:05:14.485Z,70.55
2022-12-03T09:07:42.608Z,64.53
2022-12-03T09:10:11.043Z,68.82
2022-12-03T09:12:40.470Z,64.60
2022-12-03T09:15:09.413Z,65.28
2022-12-03T09:17:38.255Z,58.88
2022-12-03T09:20:07.571Z,55.53
2022-12-03T09:22:35.899Z,51.35
2022-12-03T09:25:03.936Z,55.42
2022-12-03T09:27:31.917Z,49.95
2022-12-03T09:30:01.520Z,58.03
2022-12-03T09:32:29.704Z,55.15
2022-12-03T09:34:57.809Z,56.10
2022-12-03T09:37:25.807Z,54.95
2022-12-03T09:39:53.801Z,57.28
2022-12-03T09:42:22.200Z,58.80
2022-12-03T09:44:50.266Z,54.88
2022-12-03T09:47:20.229Z,56.97
2022-12-03T09:49:48.345Z,52.65
2022-12-03T09:52:27.411Z,53.85
2022-12-03T09:54:56.244Z,49.78
2022-12-03T09:57:24.582Z,53.42
2022-12-03T09:59:52.892Z,51.10
2022-12-03T10:02:25.766Z,51.55
2022-12-03T10:04:54.770Z,53.38
2022-12-03T10:07:23.623Z,50.88
2022-12-03T10:09:52.319Z,51.47
2022-12-03T10:12:24.683Z,49.47
2022-12-03T10:14:53.845Z,50.40
2022-12-03T10:17:23.572Z,48.33
2022-12-03T10:19:51.938Z,50.28
2022-12-03T10:22:20.107Z,53.05
2022-12-03T10:25:05.132Z,50.60
2022-12-03T10:27:33.202Z,52.03
2022-12-03T10:30:03.130Z,49.17
2022-12-03T10:32:43.960Z,55.00
2022-12-03T10:35:15.324Z,50.88
2022-12-03T10:37:59.341Z,51.75
2022-12-03T10:40:29.124Z,51.00
2022-12-03T10:43:16.148Z,50.45
2022-12-03T10:45:45.285Z,53.20
2022-12-03T10:48:16.511Z,48.45
2022-12-03T10:50:53.019Z,50.42
2022-12-03T10:53:22.952Z,49.13
2022-12-03T10:55:52.907Z,49.20
2022-12-03T10:58:23.935Z,47.63
2022-12-03T11:00:53.940Z,52.35
2022-12-03T11:03:25.160Z,48.20
2022-12-03T11:05:54.580Z,55.92
2022-12-03T11:08:25.219Z,51.33
2022-12-03T11:11:01.751Z,68.68
2022-12-03T11:13:44.918Z,51.78
2022-12-03T11:16:13.891Z,60.55
2022-12-03T11:19:03.500Z,54.90
2022-12-03T11:21:31.992Z,44.58
2022-12-03T11:24:22.127Z,46.25
2022-12-03T11:27:20.714Z,43.47
2022-12-03T11:30:00.496Z,46.03
2022-12-03T11:33:02.207Z,45.17
2022-12-03T11:35:54.303Z,44.75
2022-12-03T11:38:53.017Z,44.42
2022-12-03T11:41:24.332Z,44.25
2022-12-03T11:44:27.248Z,43.00
2022-12-03T11:46:55.889Z,43.22
2022-12-03T11:49:39.444Z,42.85
2022-12-03T11:52:30.544Z,49.50
2022-12-03T11:55:06.718Z,45.38
2022-12-03T11:57:37.617Z,56.53
2022-12-03T12:00:19.805Z,45.30
2022-12-03T12:02:49.238Z,44.78
2022-12-03T12:05:30.253Z,43.15
2022-12-03T12:08:00.765Z,44.85
2022-12-03T12:10:46.593Z,45.03
2022-12-03T12:13:55.585Z,46.90
2022-12-03T12:16:55.161Z,44.55
2022-12-03T12:19:37.692Z,45.92
2022-12-03T12:22:35.704Z,47.28
2022-12-03T12:25:06.911Z,46.60
2022-12-03T12:27:39.380Z,43.80
2022-12-03T12:30:10.840Z,45.88
2022-12-03T12:32:46.343Z,46.47
2022-12-03T12:35:17.672Z,43.70
2022-12-03T12:37:56.617Z,45.72
2022-12-03T12:40:30.573Z,47.95
2022-12-03T12:43:02.183Z,44.42
2022-12-03T12:45:37.542Z,46.47
2022-12-03T12:48:20.918Z,48.80
2022-12-03T12:50:51.816Z,43.08
2022-12-03T12:53:24.427Z,58.10
2022-12-03T12:55:57.660Z,46.08
2022-12-03T12:58:26.775Z,40.00
2022-12-03T13:00:56.234Z,39.10
2022-12-03T13:03:27.050Z,39.53
2022-12-03T13:05:57.682Z,43.45
2022-12-03T13:08:28.917Z,41.58
2022-12-03T13:10:59.710Z,40.85
2022-12-03T13:13:40.225Z,44.05
2022-12-03T13:16:17.044Z,40.15
2022-12-03T13:18:48.467Z,36.60
2022-12-03T13:21:40.485Z,45.95
2022-12-03T13:24:30.099Z,42.75
2022-12-03T13:27:10.252Z,40.90
2022-12-03T13:29:39.088Z,37.88
2022-12-03T13:32:20.117Z,40.22
2022-12-03T13:34:50.565Z,43.40
2022-12-03T13:37:22.269Z,44.50
2022-12-03T13:39:52.323Z,44.63
2022-12-03T13:42:42.791Z,45.28
2022-12-03T13:45:31.625Z,49.33
2022-12-03T13:48:01.891Z,44.15
2022-12-03T13:50:35.471Z,43.22
2022-12-03T13:53:10.965Z,54.15
2022-12-03T14:08:39.790Z,61.15
2022-12-03T14:11:08.101Z,60.03
2022-12-03T14:13:36.264Z,64.75
2022-12-03T14:16:04.437Z,69.25
2022-12-03T14:18:32.545Z,66.72
2022-12-03T14:21:00.523Z,70.82
2022-12-03T14:23:28.505Z,78.50
2022-12-03T14:25:57.872Z,88.57
2022-12-03T14:28:25.907Z,75.55
2022-12-03T14:30:53.894Z,78.35
2022-12-03T14:33:21.923Z,82.75
2022-12-03T14:35:53.412Z,87.50
2022-12-03T14:38:21.571Z,83.82
2022-12-03T14:40:49.548Z,85.47
2022-12-03T14:43:18.899Z,86.72
2022-12-03T14:45:46.909Z,79.95
2022-12-03T14:48:15.022Z,83.63
2022-12-03T14:50:43.058Z,89.05
2022-12-03T14:53:11.153Z,87.50
2022-12-03T14:55:39.232Z,86.18
2022-12-03T14:58:07.241Z,87.75
2022-12-03T15:00:36.611Z,89.45
2022-12-03T15:03:04.635Z,89.93
2022-12-03T15:05:32.631Z,91.10
2022-12-03T15:08:00.715Z,92.55
2022-12-03T15:10:28.699Z,96.43
2022-12-03T15:12:56.660Z,95.13
2022-12-03T15:15:24.680Z,94.38
2022-12-03T15:17:54.063Z,93.28
2022-12-03T15:20:22.066Z,91.28
2022-12-03T15:22:50.006Z,89.88
2022-12-03T15:25:24.248Z,91.47
2022-12-03T15:27:52.456Z,105.53
2022-12-03T15:30:20.733Z,113.28
2022-12-03T15:32:48.747Z,106.43
2022-12-03T15:35:18.805Z,122.20
2022-12-03T15:37:51.693Z,122.97
2022-12-03T15:40:19.608Z,114.18
2022-12-03T15:42:47.534Z,116.88
2022-12-03T15:45:15.759Z,121.32
2022-12-03T15:47:43.760Z,112.18
2022-12-03T15:50:12.857Z,112.00
2022-12-03T15:52:42.203Z,116.15
2022-12-03T15:55:10.859Z,102.93
2022-12-03T15:57:38.997Z,105.88
2022-12-03T16:00:08.379Z,105.40
2022-12-03T16:02:36.476Z,104.63
2022-12-03T16:05:06.541Z,85.00
2022-12-03T16:07:34.518Z,96.50
2022-12-03T16:10:04.675Z,121.32
2022-12-03T16:12:35.656Z,105.80
2022-12-03T16:15:03.593Z,94.88
2022-12-03T16:17:31.595Z,100.82
2022-12-03T16:19:59.596Z,114.90
2022-12-03T16:22:27.635Z,97.88
2022-12-03T16:24:55.546Z,103.25
2022-12-03T16:27:25.983Z,106.55
2022-12-03T16:29:56.140Z,113.30
2022-12-03T16:32:24.374Z,91.00
2022-12-03T16:34:52.339Z,98.95
2022-12-03T16:37:20.277Z,106.05
2022-12-03T16:39:48.920Z,107.00
2022-12-03T16:42:17.636Z,120.35
2022-12-03T16:45:15.737Z,158.77
2022-12-03T16:47:43.812Z,118.10
2022-12-03T16:50:18.711Z,96.68
2022-12-03T16:52:49.995Z,105.32
2022-12-03T16:55:18.150Z,110.22
2022-12-03T16:57:46.144Z,82.95
2022-12-03T17:00:17.321Z,110.38
2022-12-03T17:02:45.410Z,94.35
2022-12-03T17:05:13.553Z,93.45
2022-12-03T17:07:41.629Z,93.25
2022-12-03T17:10:10.570Z,114.82
2022-12-03T17:13:07.710Z,83.95
2022-12-03T17:15:28.078Z,111.25
2022-12-03T17:17:56.435Z,110.45
2022-12-03T17:20:24.363Z,104.18
2022-12-03T17:22:52.419Z,123.93
2022-12-03T17:25:20.494Z,129.48
2022-12-03T17:27:48.554Z,117.43
2022-12-03T17:30:16.926Z,134.18
2022-12-03T17:32:46.530Z,137.73
2022-12-03T17:35:14.561Z,124.32
2022-12-03T17:37:42.466Z,93.63
2022-12-03T17:40:14.435Z,109.03
2022-12-03T17:42:42.602Z,148.55
2022-12-03T17:45:11.547Z,108.85
2022-12-03T17:47:39.748Z,123.75
2022-12-03T17:50:10.332Z,108.95
2022-12-03T17:52:38.343Z,106.10
2022-12-03T17:55:14.233Z,131.98
2022-12-03T17:57:45.973Z,114.20
2022-12-03T18:00:14.675Z,124.13
2022-12-03T18:02:42.708Z,127.57
2022-12-03T18:05:13.124Z,140.75
2022-12-03T18:07:41.261Z,171.63
2022-12-03T18:10:09.736Z,175.32
2022-12-03T18:12:37.773Z,186.65
2022-12-03T18:15:06.548Z,154.93
2022-12-03T18:17:34.627Z,201.07
2022-12-03T18:20:02.729Z,130.18
2022-12-03T18:22:32.471Z,135.13
2022-12-03T18:25:00.654Z,133.90
2022-12-03T18:27:28.846Z,131.48
2022-12-03T18:29:57.494Z,130.80
2022-12-03T18:32:29.285Z,136.07
2022-12-03T18:34:58.898Z,132.10
2022-12-03T18:37:29.905Z,144.07
2022-12-03T18:40:00.174Z,151.57
2022-12-03T18:42:28.422Z,115.38
2022-12-03T18:44:57.778Z,139.05
2022-12-03T18:47:28.534Z,130.43
2022-12-03T18:49:57.792Z,168.65
2022-12-03T18:52:26.070Z,111.47
2022-12-03T18:54:55.294Z,120.72
2022-12-03T18:57:24.801Z,109.25
2022-12-03T18:59:53.305Z,160.38
2022-12-03T19:05:11.342Z,105.28
2022-12-03T19:07:39.586Z,137.52
2022-12-03T19:10:09.020Z,129.95
2022-12-03T19:12:39.055Z,117.20
2022-12-03T19:15:08.351Z,125.65
2022-12-03T19:17:36.366Z,124.03
2022-12-03T19:20:05.308Z,111.35
2022-12-03T19:22:33.351Z,95.13
2022-12-03T19:25:01.292Z,109.78
2022-12-03T19:27:32.668Z,146.77
2022-12-03T19:30:01.972Z,137.80
2022-12-03T19:32:30.048Z,129.13
2022-12-03T19:34:58.080Z,148.50
2022-12-03T19:37:26.032Z,122.93
2022-12-03T19:39:56.857Z,112.05
2022-12-03T19:42:25.353Z,104.88
2022-12-03T19:44:53.313Z,128.25
2022-12-03T19:47:24.694Z,122.00
2022-12-03T19:49:54.223Z,140.52
2022-12-03T19:52:22.332Z,116.40
2022-12-03T19:54:50.335Z,124.72
2022-12-03T19:57:23.206Z,101.05
2022-12-03T19:59:52.095Z,133.63
2022-12-03T20:02:20.560Z,111.75
2022-12-03T20:04:50.077Z,139.52
2022-12-03T20:07:18.138Z,161.25
2022-12-03T20:09:46.163Z,134.85
2022-12-03T20:12:14.146Z,113.72
2022-12-03T20:14:42.173Z,139.02
2022-12-03T20:17:10.204Z,116.53
2022-12-03T20:19:38.273Z,118.32
2022-12-03T20:22:07.603Z,136.75
2022-12-03T20:24:35.544Z,137.27
2022-12-03T20:27:03.645Z,99.32
2022-12-03T20:29:31.722Z,109.40
2022-12-03T20:32:00.559Z,120.18
2022-12-03T20:34:28.696Z,86.75
2022-12-03T20:36:56.645Z,89.60
2022-12-03T20:39:25.971Z,104.88
2022-12-03T20:41:53.936Z,113.13
2022-12-03T20:44:21.855Z,107.40
2022-12-03T20:46:49.830Z,92.88
2022-12-03T20:49:17.868Z,148.18
2022-12-03T20:51:45.836Z,102.07
2022-12-03T20:54:13.893Z,109.43
2022-12-03T20:56:43.210Z,118.22
2022-12-03T20:59:13.381Z,107.93
2022-12-03T21:01:42.060Z,102.65
2022-12-03T21:04:11.257Z,101.88
2022-12-03T21:06:42.034Z,97.90
2022-12-03T21:09:11.489Z,95.32
2022-12-03T21:11:42.354Z,109.43
2022-12-03T21:14:12.466Z,114.93
2022-12-03T21:19:30.171Z,102.63
2022-12-03T21:21:58.302Z,84.20
2022-12-03T21:24:26.266Z,107.38
2022-12-03T21:26:54.529Z,84.82
2022-12-03T21:29:24.098Z,103.95
2022-12-03T21:31:52.277Z,104.05
2022-12-03T21:34:20.412Z,97.65
2022-12-03T21:36:48.440Z,96.05
2022-12-03T21:39:16.531Z,94.93
2022-12-03T21:42:36.203Z,103.75
2022-12-03T21:44:35.066Z,90.28
2022-12-03T21:47:12.049Z,114.30
2022-12-03T21:49:42.451Z,101.20
2022-12-03T21:52:10.947Z,104.10
2022-12-03T21:54:38.933Z,122.38
2022-12-03T21:57:06.952Z,120.32
2022-12-03T21:59:36.365Z,107.72
2022-12-03T22:02:04.639Z,111.45
2022-12-03T22:04:32.766Z,105.15
2022-12-03T22:07:00.728Z,89.75
2022-12-03T22:09:28.943Z,81.88
2022-12-03T22:11:59.287Z,93.25
2022-12-03T22:14:27.381Z,94.15
2022-12-03T22:16:56.952Z,106.35
2022-12-03T22:19:24.977Z,91.35
2022-12-03T22:21:53.446Z,115.95
2022-12-03T22:24:21.510Z,114.35
2022-12-03T22:26:49.442Z,93.78
2022-12-03T22:29:17.351Z,91.60
2022-12-03T22:31:45.381Z,87.85
2022-12-03T22:34:14.797Z,94.00
2022-12-03T22:36:42.736Z,90.93
2022-12-03T22:39:10.679Z,98.03
2022-12-03T22:41:38.667Z,85.28
2022-12-03T22:44:07.090Z,88.22
2022-12-03T22:46:35.132Z,92.32
2022-12-03T22:49:07.097Z,76.55
2022-12-03T22:51:37.032Z,75.47
2022-12-03T22:54:05.743Z,71.00
2022-12-03T22:56:33.963Z,73.53
2022-12-03T22:59:01.939Z,76.55
2022-12-03T23:01:31.416Z,63.47
2022-12-03T23:03:59.985Z,63.92
2022-12-03T23:06:29.222Z,68.78
2022-12-03T23:08:59.897Z,69.63
2022-12-03T23:11:28.663Z,71.00
2022-12-03T23:13:56.607Z,67.03
2022-12-03T23:16:27.250Z,64.32
2022-12-03T23:18:55.634Z,60.97
2022-12-03T23:21:29.782Z,59.35
2022-12-03T23:24:00.159Z,62.33
2022-12-03T23:26:29.241Z,59.90
2022-12-03T23:28:57.679Z,60.10
2022-12-03T23:31:27.328Z,58.05
2022-12-03T23:33:56.254Z,59.10
2022-12-03T23:36:25.546Z,51.25
2022-12-03T23:38:53.589Z,54.50
2022-12-03T23:41:26.648Z,52.60
2022-12-03T23:43:54.950Z,57.92
2022-12-03T23:46:25.408Z,53.85
2022-12-03T23:48:53.937Z,52.50
2022-12-03T23:51:23.816Z,50.53
2022-12-03T23:53:52.866Z,46.33
2022-12-03T23:56:23.761Z,45.08
2022-12-03T23:58:52.462Z,41.85
